Terminal Aerodrome Forecast
Issued by NWS Louisville, KY

Home | Current Version | Previous Version | Text Only | Print | Product List | Glossary On
Versions: 1 2 3 4 5 6 7 8 9 10 11 12 13 14
000
FTUS43 KLMK 221720
TAFBWG
TAF
KBWG 221720Z 2218/2318 34007KT P6SM FEW060
     FM230000 00000KT P6SM SKC
     FM230800 00000KT 3SM BR SKC
      TEMPO 2310/2312 2SM BR
     FM231300 06005KT P6SM SKC=

USA.gov is the U.S. government's official web portal to all federal, state and local government web resources and services.